• Join FlightAware (Why Join?)
  • Login
  • US Flag 
04:01AM EDT


 

Airport Tracker/Info


-or-


 

Live Flight TrackerFlight Track Log ✈ SKQ221 ✈ 07-May-2013 ✈ KCMH - KPWK

Flight Track Log - Related Links

Times and Time Zones

All times are in EDT time to prevent confusion due to time zone crossing. See the SKQ221 flight status page for this flight to view local times or setup timezone preferences in your user account.

Time Position Orientation Groundspeed Altitude Reporting Facility
EDT Latitude Longitude Course Direction KTS MPH feet Rate Location/Type
07:08PM 39.9939 -82.8819 360° North 116 133 1,300  Level Indianapolis Center
07:09PM 40.0381 -82.8817 360° North 145 167 2,500 900 Climbing Indianapolis Center
07:10PM 40.0500 -82.8858 345° North 142 163 2,800 900 Climbing Indianapolis Center
07:10PM 40.0767 -82.8969 342° North 148 170 3,400 840 Climbing Indianapolis Center
07:11PM 40.0892 -82.9003 348° North 144 166 3,700 1,020 Climbing Indianapolis Center
07:11PM 40.1142 -82.9311 317° Northwest 157 181 4,600 900 Climbing Indianapolis Center
07:12PM 40.1400 -82.9831 303° West 165 190 5,500 540 Climbing Indianapolis Center
07:14PM 40.1722 -83.0378 308° West 170 196 5,900 180 Climbing Indianapolis Center
07:14PM 40.1958 -83.0850 303° West 215 247 5,900  Level Indianapolis Center
07:15PM 40.2044 -83.0975 312° West 192 221 5,900  Level Indianapolis Center
07:15PM 40.2256 -83.1378 304° West 188 216 5,900  Level Indianapolis Center
07:16PM 40.2419 -83.1642 309° West 195 224 5,900  Level Indianapolis Center
07:16PM 40.2611 -83.1994 305° West 189 217 5,900  Level Indianapolis Center
07:17PM 40.2728 -83.2208 306° West 192 221 5,900  Level Indianapolis Center
07:17PM 40.2925 -83.2578 305° West 195 224 5,900  Level Indianapolis Center
07:18PM 40.3058 -83.2792 309° West 196 226 5,900  Level Indianapolis Center
07:18PM 40.3239 -83.3189 301° West 200 230 5,900  Level Indianapolis Center
07:19PM 40.3375 -83.3383 313° West 196 226 5,900  Level Indianapolis Center
07:19PM 40.3553 -83.3775 301° West 198 228 5,900  Level Indianapolis Center
07:20PM 40.3689 -83.3967 313° West 197 227 5,900  Level Indianapolis Center
07:20PM 40.3867 -83.4361 301° West 196 226 5,900  Level Indianapolis Center
07:21PM 40.3997 -83.4564 310° West 196 226 5,900  Level Indianapolis Center
07:22PM 40.4311 -83.5153 305° West 197 227 5,900  Level Indianapolis Center
07:23PM 40.4678 -83.5828 306° West 194 223 5,900  Level Indianapolis Center
07:24PM 40.4986 -83.6433 304° West 197 227 5,900  Level Indianapolis Center
07:25PM 40.5311 -83.7008 307° West 196 226 5,900  Level Indianapolis Center
07:26PM 40.5631 -83.7619 305° West 200 230 5,900  Level Indianapolis Center
07:27PM 40.5947 -83.8222 305° West 198 228 5,900  Level Indianapolis Center
07:28PM 40.6264 -83.8833 304° West 199 229 5,900  Level Indianapolis Center
07:29PM 40.6569 -83.9439 304° West 200 230 5,900  Level Indianapolis Center
07:30PM 40.6947 -84.0136 306° West 199 229 5,900  Level Indianapolis Center
07:31PM 40.7264 -84.0736 305° West 198 228 6,000  Climbing Indianapolis Center
07:32PM 40.7578 -84.1331 305° West 197 227 5,900 -60 Descending Indianapolis Center
07:33PM 40.7889 -84.1950 304° West 198 228 5,900  Level Indianapolis Center
07:34PM 40.8200 -84.2550 304° West 198 228 5,900  Level Indianapolis Center
07:35PM 40.8508 -84.3142 305° West 196 226 5,900  Level Indianapolis Center
07:36PM 40.8811 -84.3733 304° West 194 223 5,900  Level Indianapolis Center
07:37PM 40.8908 -84.3856 316° Northwest 195 224 5,900  Level Chicago Center
07:38PM 40.9272 -84.4578 304° West 196 226 5,900  Level Chicago Center
07:39PM 40.9581 -84.5172 304° West 196 226 5,900  Level Chicago Center
07:40PM 40.9881 -84.5756 304° West 195 224 5,900  Level Chicago Center
07:41PM 41.0183 -84.6331 305° West 192 221 5,900  Level Chicago Center
07:42PM 41.0467 -84.6892 304° West 188 216 5,900  Level Chicago Center
07:43PM 41.0764 -84.7481 304° West 190 219 5,900  Level Chicago Center
07:44PM 41.1108 -84.8175 303° West 189 217 5,900  Level Chicago Center
07:45PM 41.1400 -84.8744 304° West 188 216 5,900  Level Chicago Center
07:46PM 41.1703 -84.9314 305° West 189 217 5,900  Level Chicago Center
07:47PM 41.1994 -84.9889 304° West 188 216 5,900  Level Chicago Center
07:48PM 41.2283 -85.0483 303° West 189 217 5,900  Level Chicago Center
07:49PM 41.2578 -85.1064 304° West 190 219 5,900  Level Chicago Center
07:50PM 41.2931 -85.1761 304° West 190 219 5,900  Level Chicago Center
07:51PM 41.3228 -85.2350 304° West 190 219 5,900  Level Chicago Center
07:52PM 41.3525 -85.2925 305° West 190 219 5,900  Level Chicago Center
07:53PM 41.3808 -85.3508 303° West 189 217 5,900  Level Chicago Center
07:54PM 41.4100 -85.4100 303° West 189 217 5,900  Level Chicago Center
07:55PM 41.4397 -85.4694 304° West 190 219 5,900  Level Chicago Center
07:56PM 41.4692 -85.5286 304° West 191 220 5,900  Level Chicago Center
07:57PM 41.5044 -85.5997 304° West 190 219 5,900  Level Chicago Center
07:58PM 41.5339 -85.6597 303° West 191 220 6,000  Climbing Chicago Center
07:59PM 41.5639 -85.7197 304° West 192 221 6,000  Level Chicago Center
08:00PM 41.5933 -85.7783 304° West 191 220 6,000  Level Chicago Center
08:02PM 41.6225 -85.8386 303° West 191 220 6,000  Level Chicago Center
08:03PM 41.6508 -85.8986 302° West 190 219 6,000  Level Chicago Center
08:04PM 41.6811 -85.9578 304° West 192 221 6,000  Level Chicago Center
08:05PM 41.7167 -86.0294 304° West 193 222 6,000  Level Chicago Center
08:06PM 41.7464 -86.0889 304° West 193 222 6,000  Level Chicago Center
08:07PM 41.7758 -86.1481 304° West 192 221 6,000  Level Chicago Center
08:08PM 41.8039 -86.2075 302° West 190 219 6,000  Level Chicago Center
08:09PM 41.8322 -86.2675 302° West 191 220 6,000 -180 Level Chicago Center
08:10PM 41.8619 -86.3292 303° West 196 226 5,700 -360 Descending Chicago Center
08:11PM 41.8989 -86.4050 303° West 202 232 5,300 -480 Descending Chicago Center
08:12PM 41.9303 -86.4681 304° West 202 232 4,800 -540 Descending Chicago Center
08:13PM 41.9594 -86.5356 300° West 207 238 4,200 -420 Descending Chicago Center
08:14PM 41.9908 -86.5975 304° West 204 235 4,000 -120 Descending Chicago Center
08:15PM 42.0200 -86.6561 304° West 193 222 4,000  Level Chicago Center
08:16PM 42.0486 -86.7158 303° West 191 220 4,000  Level Chicago Center
08:17PM 42.0817 -86.7817 304° West 185 213 4,000  Level Chicago Center
08:18PM 42.1108 -86.8439 302° West 187 215 4,000  Level Chicago Center
08:19PM 42.1389 -86.9011 303° West 184 212 4,000  Level Chicago Center
08:20PM 42.1589 -86.9633 293° West 191 220 4,000  Level Chicago Center
08:21PM 42.1614 -87.0311 273° West 184 212 4,000  Level Chicago Center
08:22PM 42.1681 -87.1008 277° West 184 212 4,000  Level Chicago Center
08:23PM 42.1728 -87.1822 275° West 185 213 4,000  Level Chicago Center
08:24PM 42.1772 -87.2492 275° West 183 211 4,000  Level Chicago Center
08:25PM 42.1825 -87.3156 276° West 181 208 4,000  Level Chicago Center
08:26PM 42.1869 -87.3819 275° West 181 208 4,000 -300 Level Chicago Center
08:27PM 42.1911 -87.4631 274° West 181 208 3,400 -480 Descending Chicago Center
08:28PM 42.1956 -87.5331 275° West 184 212 3,000 -240 Descending Chicago Center
08:29PM 42.2008 -87.5992 276° West 184 212 3,000 -60 Level Chicago Center
08:30PM 42.2042 -87.6592 274° West 176 203 2,900 -120 Descending Chicago Center
08:31PM 42.2022 -87.7314 268° West 173 199 2,800 -120 Descending Chicago Center
08:33PM 42.2002 -87.8010 285° West  Level FlightAware Approximate
08:40PM 42.1143 -87.9015 166° South  Level Estimated
08:41PM 42.1143 -87.9015 166° South  Level Estimated
08:42PM 42.1143 -87.9015 166° South  Level Estimated